Terminal Aerodrome Forecast
Issued by NWS

Home | Current Version | Previous Version | Graphics & Text | Print | Product List | Glossary On
Versions: 1 2 3 4 5 6 7 8 9 10 11 12 13 14 15 16 17
000
FTUS43 KICT 020520
TAFSLN
TAF
KSLN 020520Z 0206/0306 17008KT P6SM BKN250
     FM021100 17010KT P6SM VCSH OVC080
     FM021600 18018G28KT P6SM SCT100
     FM030000 17012KT P6SM SCT250=

USA.gov is the U.S. government's official web portal to all federal, state and local government web resources and services.